Time;durP1;ratioP1;P1;durP2;ratioP2;P2;SDS_P1;SDS_P2;PMS_P1;PMS_P2;Temp;Humidity;BMP_temperature;BMP_pressure;BME280_temperature;BME280_humidity;BME280_pressure;Samples;Min_cycle;Max_cycle;Signal;HPM_P1;HPM_P2
2023/06/29 00:02:12;;;;;;;26.80;12.90;;;;;;;17.52;100.00;100376.16;107089;1282;58322;-87
2023/06/29 00:04:41;;;;;;;36.50;14.50;;;;;;;17.48;100.00;100378.11;107066;1282;58183;-87
2023/06/29 00:07:07;;;;;;;32.60;14.00;;;;;;;17.45;100.00;100373.34;106393;1286;60096;-88
2023/06/29 00:09:32;;;;;;;34.10;13.90;;;;;;;17.42;100.00;100371.61;106707;1286;58808;-88
2023/06/29 00:11:58;;;;;;;30.10;14.40;;;;;;;17.43;100.00;100364.30;106742;1286;58768;-88
2023/06/29 00:14:23;;;;;;;31.10;15.80;;;;;;;17.45;100.00;100358.27;106710;1286;58707;-88
2023/06/29 00:16:50;;;;;;;30.20;15.50;;;;;;;17.39;100.00;100352.67;106755;1286;58439;-88
2023/06/29 00:19:16;;;;;;;33.50;15.70;;;;;;;17.32;100.00;100340.46;106680;1286;74514;-88
2023/06/29 00:21:42;;;;;;;29.90;13.60;;;;;;;17.27;100.00;100341.93;106702;1286;58289;-87
2023/06/29 00:24:11;;;;;;;34.90;14.40;;;;;;;17.24;100.00;100344.12;106463;1286;58488;-88
2023/06/29 00:26:38;;;;;;;30.20;15.10;;;;;;;17.23;100.00;100333.41;106703;1286;62822;-88
2023/06/29 00:29:04;;;;;;;36.10;15.90;;;;;;;17.24;100.00;100338.77;106676;1286;61437;-87
2023/06/29 00:31:29;;;;;;;37.50;16.50;;;;;;;17.26;100.00;100344.45;106709;1286;58647;-86
2023/06/29 00:33:57;;;;;;;35.60;16.50;;;;;;;17.23;100.00;100336.91;106686;1286;58363;-87
2023/06/29 00:36:22;;;;;;;40.70;15.90;;;;;;;17.21;100.00;100329.91;106703;1286;58323;-87
2023/06/29 00:38:48;;;;;;;32.40;16.10;;;;;;;17.18;100.00;100321.88;106548;1282;58538;-87
2023/06/29 00:41:13;;;;;;;36.00;16.20;;;;;;;17.09;100.00;100320.25;107073;1282;58251;-86
2023/06/29 00:43:42;;;;;;;37.40;16.30;;;;;;;17.09;100.00;100316.56;107099;1282;58335;-87
2023/06/29 00:46:07;;;;;;;34.80;16.40;;;;;;;17.10;100.00;100319.27;106857;1282;58305;-84
2023/06/29 00:48:37;;;;;;;37.40;16.50;;;;;;;17.09;100.00;100325.33;106649;1282;58762;-87
2023/06/29 00:51:03;;;;;;;34.40;16.70;;;;;;;17.08;100.00;100335.20;107047;1282;62964;-87
2023/06/29 00:53:29;;;;;;;39.30;15.60;;;;;;;17.09;100.00;100336.16;107049;1285;58227;-87
2023/06/29 00:55:55;;;;;;;33.70;15.70;;;;;;;17.09;100.00;100337.27;107090;1282;58279;-86
2023/06/29 00:58:21;;;;;;;30.20;15.60;;;;;;;17.06;100.00;100332.15;107075;1282;58465;-86
2023/06/29 01:00:46;;;;;;;31.60;14.90;;;;;;;17.04;100.00;100330.19;107048;1282;58696;-86
2023/06/29 01:03:12;;;;;;;30.00;14.40;;;;;;;17.02;100.00;100337.79;106757;1282;58326;-86
2023/06/29 01:05:37;;;;;;;26.30;13.50;;;;;;;17.03;100.00;100335.65;107133;1282;58140;-87
2023/06/29 01:08:21;;;;;;;32.00;14.10;;;;;;;17.01;100.00;100333.08;107066;1282;58602;-86
2023/06/29 01:10:48;;;;;;;29.80;13.80;;;;;;;16.97;100.00;100335.90;107066;1282;72568;-86
2023/06/29 01:13:18;;;;;;;30.60;13.90;;;;;;;16.99;100.00;100341.29;107020;1282;61813;-86
2023/06/29 01:15:46;;;;;;;34.50;14.30;;;;;;;17.04;100.00;100338.28;106805;1282;59781;-86
2023/06/29 01:18:13;;;;;;;35.20;14.90;;;;;;;17.06;100.00;100332.48;107035;1282;74493;-86
2023/06/29 01:20:40;;;;;;;31.40;13.90;;;;;;;17.06;100.00;100327.04;107075;1285;74704;-85
2023/06/29 01:23:14;;;;;;;26.50;13.60;;;;;;;17.05;100.00;100321.13;106667;1282;58342;-86
2023/06/29 01:25:41;;;;;;;26.80;13.70;;;;;;;17.05;100.00;100324.02;107046;1282;61974;-86
2023/06/29 01:28:08;;;;;;;24.20;12.60;;;;;;;17.05;100.00;100325.86;106608;1282;60222;-85
2023/06/29 01:30:39;;;;;;;27.70;13.60;;;;;;;17.03;100.00;100322.46;106536;1282;73401;-86
2023/06/29 01:33:07;;;;;;;27.70;13.10;;;;;;;17.01;100.00;100308.86;107013;1282;73067;-86
2023/06/29 01:35:33;;;;;;;21.80;12.90;;;;;;;17.02;100.00;100312.14;107092;1282;73443;-86
2023/06/29 01:38:02;;;;;;;26.10;13.10;;;;;;;16.97;100.00;100313.19;107064;1282;58555;-85
2023/06/29 01:40:32;;;;;;;26.00;13.70;;;;;;;16.93;100.00;100319.49;107079;1282;61242;-86
2023/06/29 01:42:58;;;;;;;21.40;13.10;;;;;;;16.92;100.00;100327.96;107030;1282;73572;-85
2023/06/29 01:45:25;;;;;;;27.20;13.50;;;;;;;16.94;100.00;100331.52;107115;1282;58305;-85
2023/06/29 01:47:51;;;;;;;28.20;13.50;;;;;;;16.94;100.00;100327.92;107050;1282;72874;-86
2023/06/29 01:50:17;;;;;;;26.10;12.90;;;;;;;16.93;100.00;100318.95;107022;1282;58315;-86
2023/06/29 01:52:44;;;;;;;27.70;13.80;;;;;;;16.87;100.00;100317.96;107066;1282;58325;-84
2023/06/29 01:55:11;;;;;;;28.50;12.60;;;;;;;16.83;100.00;100319.30;107047;1282;58301;-85
2023/06/29 01:57:37;;;;;;;28.30;13.40;;;;;;;16.81;100.00;100322.28;106835;1285;58273;-85
2023/06/29 02:00:06;;;;;;;26.80;12.80;;;;;;;16.82;100.00;100319.83;106874;1284;58326;-86
2023/06/29 02:02:31;;;;;;;27.70;12.90;;;;;;;16.78;100.00;100319.64;106877;1284;62210;-85
2023/06/29 02:04:58;;;;;;;31.40;13.00;;;;;;;16.76;100.00;100316.50;106961;1284;58169;-85
2023/06/29 02:07:24;;;;;;;30.70;13.20;;;;;;;16.77;100.00;100310.63;106916;1285;58154;-85
2023/06/29 02:09:51;;;;;;;28.70;13.70;;;;;;;16.76;100.00;100318.42;106900;1285;58291;-85
2023/06/29 02:12:16;;;;;;;32.30;14.40;;;;;;;16.75;100.00;100328.05;106739;1283;58389;-85
2023/06/29 02:14:42;;;;;;;36.50;14.80;;;;;;;16.77;100.00;100324.98;106928;1283;58490;-85
2023/06/29 02:17:08;;;;;;;37.50;14.00;;;;;;;16.78;100.00;100324.61;106942;1285;58281;-85
2023/06/29 02:19:34;;;;;;;30.80;15.10;;;;;;;16.78;100.00;100319.57;106903;1285;58303;-85
2023/06/29 02:21:59;;;;;;;32.10;13.40;;;;;;;16.78;100.00;100323.10;106951;1284;58330;-84
2023/06/29 02:24:25;;;;;;;32.20;14.70;;;;;;;16.84;100.00;100323.11;106888;1284;61726;-84
2023/06/29 02:26:50;;;;;;;35.10;14.30;;;;;;;16.85;100.00;100318.16;106942;1284;58375;-85
2023/06/29 02:29:16;;;;;;;42.10;15.20;;;;;;;16.87;100.00;100318.99;106735;1284;58606;-85
2023/06/29 02:31:41;;;;;;;37.70;13.90;;;;;;;16.91;100.00;100317.38;106873;1285;58297;-85
2023/06/29 02:34:07;;;;;;;39.00;14.60;;;;;;;16.93;100.00;100317.25;106920;1285;58248;-85
2023/06/29 02:36:33;;;;;;;31.30;14.90;;;;;;;16.95;100.00;100314.08;106879;1285;61048;-83
2023/06/29 02:38:58;;;;;;;31.30;14.30;;;;;;;16.95;100.00;100307.23;106916;1284;58628;-85
2023/06/29 02:41:23;;;;;;;38.50;15.90;;;;;;;16.96;100.00;100302.87;106935;1285;58244;-85
2023/06/29 02:43:49;;;;;;;44.00;16.80;;;;;;;16.96;100.00;100307.41;106746;1285;58330;-85
2023/06/29 02:46:15;;;;;;;37.90;17.00;;;;;;;16.94;100.00;100299.66;106938;1284;58268;-85
2023/06/29 02:48:41;;;;;;;48.50;16.80;;;;;;;16.96;100.00;100300.66;106863;1284;73585;-84
2023/06/29 02:51:07;;;;;;;47.60;18.80;;;;;;;16.99;100.00;100292.90;106867;1283;58233;-85
2023/06/29 02:53:32;;;;;;;49.10;20.70;;;;;;;17.02;100.00;100292.51;106838;1284;59088;-85
2023/06/29 02:55:58;;;;;;;37.50;17.90;;;;;;;17.05;100.00;100291.83;106933;1282;58154;-85
2023/06/29 02:58:23;;;;;;;41.50;18.90;;;;;;;17.09;100.00;100288.90;107113;1282;58555;-85
2023/06/29 03:00:49;;;;;;;37.10;17.80;;;;;;;17.07;100.00;100285.84;107097;1282;74532;-86
2023/06/29 03:03:14;;;;;;;30.60;16.30;;;;;;;17.02;100.00;100283.40;107078;1282;58267;-85
2023/06/29 03:05:40;;;;;;;35.90;16.10;;;;;;;17.07;100.00;100282.09;107051;1282;58200;-85
2023/06/29 03:08:05;;;;;;;32.90;15.10;;;;;;;17.08;100.00;100280.98;107086;1282;58287;-85
2023/06/29 03:10:31;;;;;;;30.30;14.20;;;;;;;17.02;100.00;100283.59;107084;1282;58251;-85
2023/06/29 03:12:56;;;;;;;25.60;10.90;;;;;;;17.04;100.00;100280.96;107045;1282;73218;-85
2023/06/29 03:15:22;;;;;;;28.60;10.70;;;;;;;17.03;100.00;100277.55;107073;1282;58284;-85
2023/06/29 03:17:47;;;;;;;24.40;10.80;;;;;;;17.06;100.00;100276.83;107107;1282;58483;-86
2023/06/29 03:20:13;;;;;;;22.50;10.20;;;;;;;17.13;100.00;100276.65;107088;1282;58225;-85
2023/06/29 03:22:40;;;;;;;19.00;10.40;;;;;;;17.16;100.00;100272.31;107093;1282;58644;-85
2023/06/29 03:25:07;;;;;;;18.70;10.40;;;;;;;17.16;100.00;100273.30;107039;1282;62592;-85
2023/06/29 03:27:32;;;;;;;22.30;11.50;;;;;;;17.18;100.00;100274.71;107071;1282;60093;-84
2023/06/29 03:29:58;;;;;;;18.40;11.30;;;;;;;17.21;100.00;100276.98;106594;1282;58658;-85
2023/06/29 03:32:23;;;;;;;19.60;11.20;;;;;;;17.25;100.00;100274.38;107109;1282;58300;-86
2023/06/29 03:34:49;;;;;;;20.30;11.80;;;;;;;17.28;100.00;100271.71;106876;1282;58640;-86
2023/06/29 03:37:14;;;;;;;21.70;11.20;;;;;;;17.26;100.00;100265.31;107113;1282;58303;-85
2023/06/29 03:39:40;;;;;;;25.10;9.60;;;;;;;17.24;100.00;100265.73;107069;1282;74661;-86
2023/06/29 03:42:06;;;;;;;16.80;10.20;;;;;;;17.26;100.00;100274.74;107052;1282;58268;-85
2023/06/29 03:44:31;;;;;;;18.80;8.90;;;;;;;17.28;100.00;100269.45;107031;1282;58239;-86
2023/06/29 03:46:57;;;;;;;18.40;8.40;;;;;;;17.29;100.00;100263.98;106538;1282;58438;-87
2023/06/29 03:49:22;;;;;;;15.00;7.80;;;;;;;17.36;100.00;100277.90;107085;1282;58259;-87
2023/06/29 03:51:48;;;;;;;18.30;8.20;;;;;;;17.78;100.00;100281.02;106669;1282;58438;-87
2023/06/29 03:54:13;;;;;;;15.50;6.70;;;;;;;18.33;100.00;100276.92;107073;1282;58295;-87
2023/06/29 03:56:39;;;;;;;13.30;6.30;;;;;;;18.94;100.00;100281.56;107042;1282;58232;-87
2023/06/29 03:59:04;;;;;;;10.00;5.60;;;;;;;19.57;100.00;100273.62;107005;1282;58242;-87
2023/06/29 04:01:30;;;;;;;11.20;5.50;;;;;;;20.13;100.00;100256.09;107084;1282;58293;-84
2023/06/29 04:03:55;;;;;;;11.20;4.70;;;;;;;20.67;100.00;100249.35;107132;1282;58749;-87
2023/06/29 04:06:21;;;;;;;9.00;4.80;;;;;;;21.21;100.00;100244.96;106814;1282;58535;-87
2023/06/29 04:08:46;;;;;;;10.40;4.90;;;;;;;21.67;100.00;100241.71;106860;1282;58271;-87
2023/06/29 04:11:12;;;;;;;10.60;5.00;;;;;;;22.10;100.00;100237.96;107089;1282;58345;-88
2023/06/29 04:13:41;;;;;;;12.70;4.90;;;;;;;22.41;100.00;100238.04;107073;1282;58663;-84
2023/06/29 04:16:08;;;;;;;9.10;4.30;;;;;;;22.74;100.00;100236.59;107034;1282;58818;-88
2023/06/29 04:18:37;;;;;;;12.00;4.70;;;;;;;23.08;100.00;100239.42;106822;1282;60775;-87
2023/06/29 04:21:03;;;;;;;9.10;4.50;;;;;;;23.35;100.00;100240.90;107038;1282;60955;-87
2023/06/29 04:23:29;;;;;;;10.60;4.60;;;;;;;23.69;100.00;100239.83;107055;1282;58222;-89
2023/06/29 04:25:57;;;;;;;10.30;4.30;;;;;;;24.04;100.00;100236.66;106719;1282;58336;-88
2023/06/29 04:28:25;;;;;;;13.70;4.70;;;;;;;24.43;100.00;100239.14;107038;1282;71849;-87
2023/06/29 04:30:51;;;;;;;8.20;4.60;;;;;;;24.76;100.00;100240.74;107047;1282;62815;-88
2023/06/29 04:33:17;;;;;;;9.60;4.60;;;;;;;24.98;100.00;100245.16;107028;1282;58617;-88
2023/06/29 04:35:49;;;;;;;8.40;4.10;;;;;;;25.29;100.00;100241.95;107063;1282;58593;-88
2023/06/29 04:38:14;;;;;;;9.50;4.00;;;;;;;25.67;100.00;100237.84;107034;1282;74715;-89
2023/06/29 04:40:40;;;;;;;8.10;4.30;;;;;;;26.06;100.00;100238.68;106829;1282;58345;-88
2023/06/29 04:43:06;;;;;;;11.30;4.30;;;;;;;26.55;100.00;100229.60;106893;1282;58546;-88
2023/06/29 04:45:32;;;;;;;9.40;4.20;;;;;;;26.93;100.00;100231.91;106732;1282;58276;-89
2023/06/29 04:47:59;;;;;;;12.60;4.60;;;;;;;26.74;100.00;100228.95;106826;1282;58256;-89
2023/06/29 04:50:25;;;;;;;8.10;4.20;;;;;;;26.29;100.00;100226.42;107078;1282;58237;-88
2023/06/29 04:52:55;;;;;;;15.30;4.70;;;;;;;26.15;100.00;100224.66;106854;1282;58221;-87
2023/06/29 04:55:22;;;;;;;10.90;5.10;;;;;;;26.24;100.00;100224.95;106606;1282;59926;-88
2023/06/29 04:57:47;;;;;;;13.90;4.80;;;;;;;26.26;100.00;100225.85;106685;1284;60983;-88
2023/06/29 05:00:14;;;;;;;19.80;5.80;;;;;;;26.27;100.00;100234.92;106909;1285;58421;-87
2023/06/29 05:02:41;;;;;;;14.70;5.10;;;;;;;26.39;100.00;100240.21;106553;1284;58330;-87
2023/06/29 05:05:07;;;;;;;13.80;5.40;;;;;;;26.73;100.00;100236.45;106880;1284;58276;-87
2023/06/29 05:07:33;;;;;;;15.70;4.90;;;;;;;27.05;99.13;100228.40;106906;1284;58197;-86
2023/06/29 05:09:58;;;;;;;14.50;5.20;;;;;;;27.17;98.99;100239.13;107004;1285;58279;-86
2023/06/29 05:12:25;;;;;;;17.10;5.60;;;;;;;27.28;94.98;100248.80;106612;1285;58445;-87
2023/06/29 05:14:50;;;;;;;17.70;5.60;;;;;;;27.32;94.96;100249.06;106838;1284;58269;-89
2023/06/29 05:17:17;;;;;;;15.20;6.00;;;;;;;27.31;92.84;100244.16;106896;1284;58747;-88
2023/06/29 05:19:45;;;;;;;14.90;5.30;;;;;;;27.39;92.66;100240.83;106940;1285;58316;-87
2023/06/29 05:22:11;;;;;;;10.20;5.20;;;;;;;27.32;88.72;100246.94;106589;1285;58260;-87
2023/06/29 05:24:37;;;;;;;15.80;5.90;;;;;;;27.35;89.85;100250.69;106740;1285;58313;-87
2023/06/29 05:27:04;;;;;;;14.70;6.10;;;;;;;27.29;89.15;100242.95;106752;1285;58323;-87
2023/06/29 05:29:30;;;;;;;12.20;5.90;;;;;;;27.23;88.68;100240.13;106926;1285;58950;-89
2023/06/29 05:31:58;;;;;;;16.30;6.80;;;;;;;26.99;89.73;100241.14;106924;1283;58300;-88
2023/06/29 05:34:23;;;;;;;14.90;6.10;;;;;;;26.69;91.18;100234.81;106690;1286;58206;-88
2023/06/29 05:36:49;;;;;;;16.10;6.40;;;;;;;26.26;93.66;100228.45;106956;1284;58210;-87
2023/06/29 05:39:15;;;;;;;16.50;6.40;;;;;;;25.99;98.54;100224.30;106783;1285;58322;-88
2023/06/29 05:41:41;;;;;;;23.40;7.30;;;;;;;25.95;98.92;100226.06;106770;1284;58202;-88
2023/06/29 05:44:06;;;;;;;16.70;6.90;;;;;;;26.11;98.16;100222.40;106886;1285;59149;-87
2023/06/29 05:46:35;;;;;;;13.60;6.60;;;;;;;26.22;94.89;100232.02;106750;1285;58261;-88
2023/06/29 05:49:01;;;;;;;15.60;6.40;;;;;;;26.18;95.43;100222.73;106892;1286;73667;-89
2023/06/29 05:54:49;;;;;;;19.70;7.40;;;;;;;26.20;95.63;100221.43;106923;1285;60340;-87
2023/06/29 05:57:15;;;;;;;20.50;6.90;;;;;;;26.25;95.70;100228.11;106679;1288;58389;-88
2023/06/29 05:59:41;;;;;;;14.90;6.60;;;;;;;26.54;95.36;100226.98;106713;1285;58194;-88
2023/06/29 06:02:09;;;;;;;15.50;6.60;;;;;;;26.40;92.82;100220.10;106727;1291;58284;-88
2023/06/29 06:04:35;;;;;;;14.60;6.40;;;;;;;26.09;91.11;100220.25;106804;1285;58293;-89
2023/06/29 06:07:01;;;;;;;20.10;7.50;;;;;;;25.90;95.40;100218.41;106857;1286;58496;-88
2023/06/29 06:09:26;;;;;;;17.00;6.10;;;;;;;25.85;96.42;100215.73;106820;1286;58202;-89
2023/06/29 06:11:54;;;;;;;12.70;6.40;;;;;;;25.87;98.34;100216.64;106831;1288;58370;-88
2023/06/29 06:14:20;;;;;;;16.90;6.50;;;;;;;26.25;97.14;100224.02;106889;1285;58290;-88
2023/06/29 06:16:46;;;;;;;18.50;7.20;;;;;;;26.43;96.06;100225.02;106834;1286;58279;-87
2023/06/29 06:19:12;;;;;;;16.10;6.50;;;;;;;26.98;95.70;100220.20;106678;1285;58341;-89
2023/06/29 06:21:37;;;;;;;14.50;7.20;;;;;;;27.82;89.83;100218.28;106420;1286;58456;-91
2023/06/29 06:24:03;;;;;;;13.10;5.60;;;;;;;28.27;85.52;100216.48;106544;1286;58296;-89
2023/06/29 06:26:28;;;;;;;15.00;5.80;;;;;;;29.08;82.65;100220.20;106841;1286;72500;-91
2023/06/29 06:28:54;;;;;;;12.50;6.00;;;;;;;29.98;78.11;100216.19;106984;1282;58642;-89
2023/06/29 06:31:20;;;;;;;13.20;6.00;;;;;;;30.81;74.06;100212.51;107123;1282;58290;-90
2023/06/29 06:37:07;;;;;;;10.20;4.90;;;;;;;32.09;62.39;100202.17;106955;1285;73374;-94
2023/06/29 06:39:34;;;;;;;8.30;4.90;;;;;;;32.11;61.42;100211.15;106679;1286;72432;-91
2023/06/29 06:42:22;;;;;;;13.20;5.60;;;;;;;32.17;61.29;100215.94;106942;1285;58347;-94
2023/06/29 06:44:56;;;;;;;10.20;5.10;;;;;;;32.51;59.83;100217.76;106570;1289;60128;-90
2023/06/29 06:47:42;;;;;;;12.50;5.10;;;;;;;32.92;59.29;100215.66;106647;1288;74589;-94
2023/06/29 06:50:08;;;;;;;11.20;5.30;;;;;;;33.27;56.46;100211.45;106378;1289;73303;-92
2023/06/29 06:52:33;;;;;;;12.40;5.00;;;;;;;33.41;55.36;100208.17;106210;1289;58288;-92
2023/06/29 06:54:59;;;;;;;8.30;4.70;;;;;;;33.66;54.36;100207.04;106022;1294;58266;-92
2023/06/29 06:57:25;;;;;;;6.90;5.00;;;;;;;33.97;53.99;100208.05;106036;1293;58769;-91
2023/06/29 07:03:12;;;;;;;14.90;4.90;;;;;;;34.39;51.45;100215.50;106125;1294;73365;-94
2023/06/29 07:05:38;;;;;;;8.30;4.40;;;;;;;33.95;50.81;100217.36;105992;1293;59104;-93
2023/06/29 07:08:05;;;;;;;10.10;4.80;;;;;;;33.26;50.86;100207.48;106252;1292;58340;-93
2023/06/29 07:10:31;;;;;;;8.30;4.90;;;;;;;32.32;51.29;100207.06;106199;1292;58433;-92
2023/06/29 07:12:56;;;;;;;10.20;4.80;;;;;;;31.47;53.33;100207.33;106199;1291;58453;-93
2023/06/29 07:22:05;;;;;;;11.90;4.10;;;;;;;30.66;56.91;100181.67;106495;1287;58740;-94
2023/06/29 07:24:31;;;;;;;9.80;4.50;;;;;;;30.68;58.18;100188.27;106440;1289;58379;-91
2023/06/29 07:26:57;;;;;;;10.80;5.20;;;;;;;30.85;58.39;100197.96;106433;1288;58416;-92
2023/06/29 07:29:22;;;;;;;8.70;5.20;;;;;;;31.00;58.40;100204.45;106287;1288;58299;-89
2023/06/29 07:31:48;;;;;;;16.20;5.40;;;;;;;31.20;57.94;100207.31;106461;1288;58300;-95
2023/06/29 07:34:37;;;;;;;8.20;4.70;;;;;;;31.50;57.49;100209.86;106810;1283;58255;-94
2023/06/29 07:37:03;;;;;;;8.00;4.70;;;;;;;32.40;57.56;100213.58;106513;1288;60908;-90
2023/06/29 07:39:29;;;;;;;8.60;4.90;;;;;;;33.13;55.51;100208.91;106366;1288;58491;-92
2023/06/29 07:45:16;;;;;;;16.70;5.30;;;;;;;33.20;52.81;100210.77;106544;1287;71039;-92
2023/06/29 07:47:42;;;;;;;18.60;5.20;;;;;;;32.44;51.69;100221.82;106400;1288;58282;-91
2023/06/29 07:50:08;;;;;;;13.80;5.20;;;;;;;31.76;53.12;100223.29;106079;1290;58317;-92
2023/06/29 07:55:59;;;;;;;19.10;5.60;;;;;;;30.05;54.32;100226.19;106405;1289;72227;-95
2023/06/29 07:58:26;;;;;;;16.30;5.10;;;;;;;29.46;55.87;100221.48;106350;1292;71172;-90
2023/06/29 08:00:51;;;;;;;17.20;5.50;;;;;;;29.16;58.86;100221.27;106360;1289;61190;-93
2023/06/29 08:03:17;;;;;;;14.80;5.30;;;;;;;29.04;60.18;100216.56;106516;1289;58310;-91
2023/06/29 08:05:42;;;;;;;13.00;5.60;;;;;;;28.89;60.10;100214.15;106460;1289;58648;-95
2023/06/29 08:08:08;;;;;;;12.50;5.40;;;;;;;28.65;60.71;100214.41;106512;1288;58392;-92
2023/06/29 08:10:34;;;;;;;19.70;6.30;;;;;;;28.57;60.77;100207.65;105907;1295;58276;-91
2023/06/29 08:16:21;;;;;;;19.60;6.30;;;;;;;29.59;60.25;100199.04;106001;1296;71793;-93
2023/06/29 08:18:47;;;;;;;11.60;5.20;;;;;;;29.76;59.57;100205.22;105907;1296;58656;-93
2023/06/29 08:21:13;;;;;;;16.80;6.20;;;;;;;29.99;60.68;100212.86;106124;1295;58246;-92
2023/06/29 08:23:38;;;;;;;15.60;5.80;;;;;;;30.01;59.97;100210.79;106069;1295;58287;-93
2023/06/29 08:26:04;;;;;;;14.60;5.30;;;;;;;30.03;60.10;100206.17;106298;1294;58577;-94
2023/06/29 08:28:50;;;;;;;17.50;5.30;;;;;;;30.19;60.24;100201.05;105782;1301;72628;-93
2023/06/29 08:31:17;;;;;;;14.60;5.70;;;;;;;30.19;59.31;100205.66;105642;1300;58326;-92
2023/06/29 08:33:43;;;;;;;16.70;5.50;;;;;;;29.89;58.78;100212.50;105592;1303;58218;-91
2023/06/29 08:36:09;;;;;;;11.40;5.10;;;;;;;29.52;58.69;100204.13;105656;1301;58252;-91
2023/06/29 08:38:35;;;;;;;12.80;5.60;;;;;;;29.24;59.78;100201.67;105756;1300;58540;-94
2023/06/29 08:41:05;;;;;;;15.60;5.40;;;;;;;28.99;59.97;100196.09;105535;1303;58333;-92
2023/06/29 08:46:53;;;;;;;21.10;5.40;;;;;;;28.50;63.76;100198.85;105447;1303;71116;-95
2023/06/29 08:52:41;;;;;;;10.00;5.00;;;;;;;28.65;63.04;100198.17;105477;1303;60147;-92
2023/06/29 08:55:07;;;;;;;16.70;5.20;;;;;;;28.44;62.27;100188.36;105476;1303;73496;-94
2023/06/29 08:57:34;;;;;;;14.80;6.00;;;;;;;28.14;62.79;100188.63;105190;1307;58255;-88
2023/06/29 09:00:06;;;;;;;14.60;6.00;;;;;;;27.74;62.85;100183.98;105241;1306;72799;-93
2023/06/29 09:02:53;;;;;;;14.20;5.20;;;;;;;27.58;65.14;100179.04;105072;1308;60031;-96
2023/06/29 09:05:19;;;;;;;12.60;5.10;;;;;;;27.55;66.54;100177.27;105075;1307;60082;-95
2023/06/29 09:07:50;;;;;;;11.90;5.30;;;;;;;27.51;64.42;100169.89;104938;1304;435670;-94
2023/06/29 09:10:33;;;;;;;13.40;5.40;;;;;;;27.55;64.59;100161.85;105198;1305;73525;-91
2023/06/29 09:12:59;;;;;;;11.00;5.30;;;;;;;27.58;65.48;100157.77;104823;1306;58328;-92
2023/06/29 09:15:27;;;;;;;14.50;4.80;;;;;;;27.86;65.83;100156.50;105236;1306;58291;-89
2023/06/29 09:17:56;;;;;;;12.80;5.00;;;;;;;28.37;64.21;100154.91;105080;1305;58491;-93
2023/06/29 09:20:22;;;;;;;15.90;4.20;;;;;;;28.67;62.92;100155.63;105382;1304;73471;-91
2023/06/29 09:22:51;;;;;;;11.10;4.30;;;;;;;28.80;61.14;100145.18;105401;1304;58808;-90
2023/06/29 09:25:17;;;;;;;10.90;4.70;;;;;;;28.93;61.68;100149.40;105404;1303;71238;-92
2023/06/29 09:28:07;;;;;;;9.10;4.10;;;;;;;28.91;60.92;100149.22;105138;1306;58975;-95
2023/06/29 09:30:40;;;;;;;14.00;4.60;;;;;;;28.98;61.31;100147.25;104922;1306;60079;-88
2023/06/29 09:33:09;;;;;;;14.20;4.50;;;;;;;28.97;61.98;100151.78;104615;1307;74469;-91
2023/06/29 09:38:55;;;;;;;;;;;;;;;28.45;62.24;100144.09;105744;1298;72449;-91
2023/06/29 09:41:22;;;;;;;;;;;;;;;28.23;63.31;100140.13;105800;1296;58883;-91
2023/06/29 09:46:51;;;;;;;;;;;;;;;27.88;61.46;100136.11;105963;1295;73644;-89
2023/06/29 09:49:20;;;;;;;;;;;;;;;27.81;63.35;100130.70;105934;1295;58372;-92
2023/06/29 09:51:48;;;;;;;;;;;;;;;27.82;64.26;100133.63;105881;1296;72367;-93
2023/06/29 09:54:14;;;;;;;;;;;;;;;27.84;65.59;100140.37;105855;1296;61259;-90
2023/06/29 09:56:40;;;;;;;;;;;;;;;27.78;64.72;100140.96;105882;1297;58315;-92
2023/06/29 10:02:08;;;;;;;;;;;;;;;27.66;65.43;100139.94;105814;1297;72234;-91
2023/06/29 10:04:34;;;;;;;;;;;;;;;27.65;68.03;100132.81;105777;1297;58224;-92
2023/06/29 10:07:05;;;;;;;;;;;;;;;27.85;67.92;100133.33;105504;1301;58282;-89
2023/06/29 10:09:33;;;;;;;;;;;;;;;28.08;65.39;100126.86;105510;1301;60915;-92
2023/06/29 10:11:59;;;;;;;;;;;;;;;28.12;62.32;100125.60;105564;1301;73927;-92
2023/06/29 10:14:25;;;;;;;;;;;;;;;27.92;60.58;100127.12;105185;1306;58334;-91
2023/06/29 10:16:54;;;;;;;;;;;;;;;27.99;62.93;100129.76;105352;1304;59081;-93
2023/06/29 10:19:23;;;;;;;;;;;;;;;28.17;63.03;100132.91;105283;1305;59946;-90
2023/06/29 10:21:56;;;;;;;;;;;;;;;28.24;64.51;100135.86;105331;1305;60951;-87
2023/06/29 10:24:25;;;;;;;;;;;;;;;28.38;64.97;100133.29;105297;1305;73613;-91
2023/06/29 10:26:51;;;;;;;;;;;;;;;28.20;64.33;100129.75;105199;1306;73195;-90
2023/06/29 10:29:16;;;;;;;;;;;;;;;27.98;66.65;100125.56;105155;1306;58578;-91
2023/06/29 10:31:48;;;;;;;;;;;;;;;27.85;68.54;100124.06;105389;1302;58451;-88
2023/06/29 10:34:14;;;;;;;;;;;;;;;27.68;68.55;100122.70;105473;1302;58931;-91
2023/06/29 10:36:48;;;;;;;;;;;;;;;27.57;69.09;100123.42;105462;1302;58452;-90
2023/06/29 10:39:33;;;;;;;;;;;;;;;27.73;70.08;100122.58;105436;1302;73367;-91
2023/06/29 10:42:01;;;;;;;;;;;;;;;27.72;70.45;100126.83;105502;1302;73443;-92
2023/06/29 10:47:37;;;;;;;;;;;;;;;27.35;73.36;100131.52;105723;1298;58685;-92
2023/06/29 10:50:11;;;;;;;;;;;;;;;27.23;74.30;100134.67;105702;1300;74728;-93
2023/06/29 10:52:40;;;;;;;;;;;;;;;27.10;73.94;100136.45;105744;1298;73820;-90
2023/06/29 10:55:15;;;;;;;;;;;;;;;26.95;75.62;100135.23;105922;1296;72658;-92
2023/06/29 10:57:44;;;;;;;;;;;;;;;26.97;77.97;100132.46;105884;1295;61325;-91
2023/06/29 11:00:10;;;;;;;;;;;;;;;27.10;76.88;100125.55;105863;1296;61056;-91
2023/06/29 11:02:35;;;;;;;;;;;;;;;27.07;77.63;100125.67;105885;1297;58226;-92
2023/06/29 11:05:01;;;;;;;;;;;;;;;27.08;75.30;100117.54;105962;1296;58372;-89
2023/06/29 11:07:27;;;;;;;;;;;;;;;27.16;73.21;100116.12;105790;1296;58205;-89
2023/06/29 11:10:02;;;;;;;;;;;;;;;27.38;69.27;100115.23;105883;1295;58266;-91
2023/06/29 11:12:27;;;;;;;;;;;;;;;27.59;66.80;100110.63;105804;1297;60971;-89
2023/06/29 11:14:54;;;;;;;;;;;;;;;27.91;67.74;100098.62;105722;1298;58364;-92
2023/06/29 11:17:19;;;;;;;;;;;;;;;28.10;65.90;100099.48;105730;1297;58483;-91
2023/06/29 11:19:45;;;;;;;;;;;;;;;28.14;64.20;100096.48;105646;1298;58389;-92
2023/06/29 11:22:11;;;;;;;;;;;;;;;28.18;64.88;100093.41;105726;1297;58645;-93
2023/06/29 11:24:36;;;;;;;;;;;;;;;28.07;65.14;100094.64;105683;1298;58405;-92
2023/06/29 11:27:02;;;;;;;;;;;;;;;28.01;64.83;100086.94;105795;1298;58324;-91
2023/06/29 11:29:28;;;;;;;;;;;;;;;27.95;64.57;100082.65;105659;1298;58400;-91
2023/06/29 11:31:54;;;;;;;;;;;;;;;27.88;64.91;100079.70;105704;1298;58339;-91
2023/06/29 11:34:19;;;;;;;;;;;;;;;27.81;65.43;100078.48;105770;1298;58584;-91
2023/06/29 11:36:46;;;;;;;;;;;;;;;27.84;68.59;100080.61;105826;1297;59224;-91
2023/06/29 11:39:12;;;;;;;;;;;;;;;28.07;68.24;100080.08;105745;1298;58278;-91
2023/06/29 11:41:39;;;;;;;;;;;;;;;28.23;68.28;100075.20;105740;1298;58322;-91
2023/06/29 11:44:04;;;;;;;;;;;;;;;28.23;66.52;100071.80;105909;1295;58251;-90
2023/06/29 11:46:33;;;;;;;;;;;;;;;28.18;65.16;100071.23;106001;1295;59020;-90
2023/06/29 11:48:59;;;;;;;;;;;;;;;28.03;65.69;100076.48;105945;1296;73867;-90
2023/06/29 11:51:25;;;;;;;;;;;;;;;27.98;66.13;100082.73;105930;1296;58322;-91
2023/06/29 11:53:54;;;;;;;;;;;;;;;28.04;66.46;100077.14;105873;1295;58486;-89
2023/06/29 11:56:26;;;;;;;;;;;;;;;27.90;64.11;100074.64;106042;1294;59819;-89
2023/06/29 11:58:52;;;;;;;;;;;;;;;27.73;64.43;100068.21;106014;1294;74910;-88
2023/06/29 12:01:18;;;;;;;;;;;;;;;27.56;64.08;100070.11;106092;1293;58201;-91
2023/06/29 12:03:53;;;;;;;;;;;;;;;;;;;;;
2023/06/29 12:06:19;;;;;;;;;;;;;;;27.26;66.89;100068.85;106116;1293;62077;-91